Aviation Digital Data Service (ADDS)

Output produced by METARs form (1126 UTC 16 September 2014)
found at http://aviationweather.gov/adds/metars/
 
KSLK 160523Z 1606/1706 00000KT P6SM -SHRA OVC050 
     TEMPO 1608/1611 5SM -RA BR BKN030 OVC050 
     FM161100 VRB03KT P6SM OVC030 
     FM161600 28006KT P6SM BKN040 
     FM162100 27007KT P6SM SCT050 
     FM170100 00000KT P6SM SCT250